createdAt,value
2019-05-19T00:00:23.478Z,78.57
2019-05-19T00:02:53.211Z,77.13
2019-05-19T00:05:22.620Z,65.80
2019-05-19T00:07:52.102Z,48.30
2019-05-19T00:10:21.620Z,45.77
2019-05-19T00:12:51.234Z,63.10
2019-05-19T00:15:20.740Z,67.90
2019-05-19T00:17:50.184Z,67.37
2019-05-19T00:20:19.700Z,67.17
2019-05-19T00:22:49.829Z,79.53
2019-05-19T00:25:19.277Z,47.63
2019-05-19T00:27:48.811Z,147.23
2019-05-19T00:30:18.583Z,103.27
2019-05-19T00:32:48.030Z,108.13
2019-05-19T00:35:17.899Z,82.73
2019-05-19T00:37:47.514Z,54.20
2019-05-19T00:40:17.035Z,39.93
2019-05-19T00:42:46.506Z,52.10
2019-05-19T00:45:16.233Z,64.77
2019-05-19T00:47:45.683Z,60.87
2019-05-19T00:50:15.504Z,49.20
2019-05-19T00:52:45.039Z,73.20
2019-05-19T00:55:14.731Z,81.97
2019-05-19T00:57:44.931Z,70.87
2019-05-19T01:00:15.295Z,83.53
2019-05-19T01:02:44.809Z,90.97
2019-05-19T01:05:14.847Z,93.50
2019-05-19T01:07:44.350Z,87.97
2019-05-19T01:10:14.087Z,76.77
2019-05-19T01:12:43.535Z,55.33
2019-05-19T01:15:13.620Z,55.70
2019-05-19T01:17:43.058Z,53.70
2019-05-19T01:20:13.112Z,269.93
2019-05-19T01:22:42.621Z,195.30
2019-05-19T01:25:12.489Z,102.23
2019-05-19T01:27:42.052Z,97.83
2019-05-19T01:30:12.623Z,106.63
2019-05-19T01:32:42.079Z,122.60
2019-05-19T01:35:11.693Z,116.10
2019-05-19T01:37:41.151Z,107.00
2019-05-19T01:40:11.314Z,105.03
2019-05-19T01:42:40.773Z,111.53
2019-05-19T01:45:10.757Z,101.43
2019-05-19T01:47:40.206Z,124.73
2019-05-19T01:50:18.604Z,151.60
2019-05-19T01:52:41.955Z,151.40
2019-05-19T01:55:12.401Z,140.63
2019-05-19T01:57:41.867Z,127.60
2019-05-19T02:00:12.227Z,165.97
2019-05-19T02:02:41.669Z,129.23
2019-05-19T02:05:11.344Z,164.70
2019-05-19T02:07:40.884Z,1076.73
2019-05-19T02:10:10.530Z,171.03
2019-05-19T02:12:39.974Z,105.50
2019-05-19T02:15:10.072Z,126.47
2019-05-19T02:17:39.523Z,114.77
2019-05-19T02:20:10.385Z,123.47
2019-05-19T02:22:39.994Z,136.13
2019-05-19T02:25:09.881Z,132.07
2019-05-19T02:27:39.394Z,144.63
2019-05-19T02:30:10.865Z,153.80
2019-05-19T02:32:40.965Z,164.77
2019-05-19T02:35:12.387Z,168.47
2019-05-19T02:37:42.017Z,156.13
2019-05-19T02:40:12.924Z,165.17
2019-05-19T02:42:45.109Z,153.17
2019-05-19T02:45:14.985Z,151.73
2019-05-19T02:47:45.983Z,150.67
2019-05-19T02:50:15.639Z,148.60
2019-05-19T02:52:47.908Z,139.33
2019-05-19T02:55:18.885Z,152.40
2019-05-19T02:57:50.947Z,152.03
2019-05-19T03:00:23.499Z,150.17
2019-05-19T03:02:54.564Z,136.77
2019-05-19T03:05:23.979Z,129.43
2019-05-19T03:07:53.408Z,138.47
2019-05-19T03:10:22.816Z,140.43
2019-05-19T03:12:52.404Z,144.23
2019-05-19T03:15:21.825Z,133.90
2019-05-19T03:17:52.018Z,122.07
2019-05-19T03:20:21.495Z,117.27
2019-05-19T03:22:50.954Z,101.90
2019-05-19T03:25:20.360Z,90.43
2019-05-19T03:27:49.805Z,98.87
2019-05-19T03:30:27.872Z,87.70
2019-05-19T03:33:01.764Z,89.50
2019-05-19T03:35:31.144Z,92.57
2019-05-19T03:38:00.589Z,94.90
2019-05-19T03:40:30.000Z,102.43
2019-05-19T03:42:59.449Z,101.60
2019-05-19T03:45:28.870Z,112.63
2019-05-19T03:47:58.342Z,109.00
2019-05-19T03:50:27.761Z,114.30
2019-05-19T03:52:57.211Z,108.93
2019-05-19T03:55:26.630Z,120.27
2019-05-19T03:57:56.625Z,123.90
2019-05-19T04:00:26.113Z,116.40
2019-05-19T04:02:55.570Z,118.63
2019-05-19T04:05:25.003Z,118.47
2019-05-19T04:07:55.942Z,135.77
2019-05-19T04:10:25.440Z,120.27
2019-05-19T04:12:54.905Z,119.10
2019-05-19T04:15:24.332Z,102.13
2019-05-19T04:17:53.809Z,97.53
2019-05-19T04:20:23.205Z,100.63
2019-05-19T04:22:52.663Z,115.40
2019-05-19T04:25:22.117Z,106.53
2019-05-19T04:27:51.576Z,104.57
2019-05-19T04:30:21.376Z,152.57
2019-05-19T04:32:50.845Z,169.77
2019-05-19T04:35:20.448Z,228.57
2019-05-19T04:37:50.114Z,199.20
2019-05-19T04:40:19.567Z,207.40
2019-05-19T04:42:49.840Z,213.40
2019-05-19T04:45:19.289Z,200.83
2019-05-19T04:47:48.842Z,197.80
2019-05-19T04:50:18.788Z,187.80
2019-05-19T04:52:48.239Z,192.80
2019-05-19T04:55:17.729Z,176.27
2019-05-19T04:57:47.308Z,156.53
2019-05-19T05:00:17.740Z,174.90
2019-05-19T05:02:47.200Z,178.43
2019-05-19T05:05:17.098Z,165.37
2019-05-19T05:07:46.546Z,169.53
2019-05-19T05:10:16.321Z,163.73
2019-05-19T05:12:45.781Z,157.67
2019-05-19T05:15:15.403Z,155.60
2019-05-19T05:17:44.997Z,153.53
2019-05-19T05:20:16.173Z,143.70
2019-05-19T05:22:48.617Z,143.70
2019-05-19T05:25:19.121Z,142.30
2019-05-19T05:27:48.625Z,140.93
2019-05-19T05:30:18.895Z,136.33
2019-05-19T05:32:48.641Z,140.00
2019-05-19T05:35:21.153Z,140.83
2019-05-19T05:37:50.599Z,140.77
2019-05-19T05:40:20.274Z,134.37
2019-05-19T05:42:49.748Z,124.57
2019-05-19T05:45:19.259Z,125.93
2019-05-19T05:47:48.892Z,118.60
2019-05-19T05:50:18.596Z,108.60
2019-05-19T05:52:48.039Z,106.47
2019-05-19T05:55:17.638Z,105.23
2019-05-19T05:57:47.143Z,94.37
2019-05-19T06:00:17.099Z,91.03
2019-05-19T06:02:46.705Z,78.77
2019-05-19T06:05:16.215Z,82.90
2019-05-19T06:07:45.651Z,73.53
2019-05-19T06:10:16.964Z,79.57
2019-05-19T06:12:46.567Z,68.77
2019-05-19T06:15:17.991Z,63.43
2019-05-19T06:17:48.102Z,64.93
2019-05-19T06:20:19.196Z,59.00
2019-05-19T06:22:56.263Z,58.53
2019-05-19T06:25:20.162Z,57.13
2019-05-19T06:27:49.615Z,52.07
2019-05-19T06:30:20.909Z,50.77
2019-05-19T06:32:55.835Z,58.60
2019-05-19T06:35:25.590Z,51.73
2019-05-19T06:37:55.009Z,53.50
2019-05-19T06:40:24.588Z,52.07
2019-05-19T06:42:54.096Z,53.57
2019-05-19T06:45:23.752Z,51.83
2019-05-19T06:47:54.744Z,55.43
2019-05-19T06:50:24.198Z,49.80
2019-05-19T06:52:53.707Z,50.63
2019-05-19T06:55:23.214Z,52.73
2019-05-19T06:57:52.646Z,49.00
2019-05-19T07:00:23.965Z,51.90
2019-05-19T07:02:53.428Z,54.00
2019-05-19T07:05:22.882Z,57.50
2019-05-19T07:07:52.809Z,51.77
2019-05-19T07:10:22.258Z,51.03
2019-05-19T07:12:51.719Z,48.70
2019-05-19T07:15:21.257Z,49.73
2019-05-19T07:17:51.023Z,48.43
2019-05-19T07:20:20.459Z,51.47
2019-05-19T07:22:50.473Z,49.53
2019-05-19T07:25:20.119Z,49.17
2019-05-19T07:27:50.723Z,46.17
2019-05-19T07:30:20.570Z,47.47
2019-05-19T07:32:50.016Z,49.90
2019-05-19T07:35:19.459Z,50.77
2019-05-19T07:37:48.951Z,49.27
2019-05-19T07:40:18.552Z,47.57
2019-05-19T07:42:48.120Z,53.27
2019-05-19T07:45:20.355Z,53.73
2019-05-19T07:47:49.898Z,52.37
2019-05-19T07:50:19.335Z,51.37
2019-05-19T07:52:48.911Z,50.40
2019-05-19T07:55:18.358Z,49.47
2019-05-19T07:57:47.763Z,51.73
2019-05-19T08:00:17.465Z,46.10
2019-05-19T08:02:46.899Z,48.60
2019-05-19T08:05:17.914Z,47.60
2019-05-19T08:07:47.623Z,48.57
2019-05-19T08:10:17.319Z,48.57
2019-05-19T08:12:46.734Z,49.03
2019-05-19T08:15:17.028Z,50.23
2019-05-19T08:17:46.491Z,48.23
2019-05-19T08:20:16.488Z,44.83
2019-05-19T08:22:46.192Z,44.90
2019-05-19T08:25:15.809Z,44.63
2019-05-19T08:27:45.331Z,43.47
2019-05-19T08:30:16.809Z,43.80
2019-05-19T08:32:46.495Z,43.60
2019-05-19T08:35:15.976Z,43.63
2019-05-19T08:37:45.424Z,41.60
2019-05-19T08:40:15.519Z,42.63
2019-05-19T08:42:45.081Z,42.47
2019-05-19T08:45:14.921Z,39.17
2019-05-19T08:47:44.432Z,37.80
2019-05-19T08:50:14.316Z,36.23
2019-05-19T08:52:43.771Z,36.97
2019-05-19T08:55:13.408Z,35.90
2019-05-19T08:57:43.073Z,35.63
2019-05-19T09:00:14.021Z,36.63
2019-05-19T09:02:43.458Z,35.00
2019-05-19T09:05:13.448Z,36.28
2019-05-19T09:07:42.922Z,35.85
2019-05-19T09:10:14.434Z,35.45
2019-05-19T09:12:43.895Z,35.98
2019-05-19T09:15:13.469Z,35.35
2019-05-19T09:17:43.121Z,36.93
2019-05-19T09:20:13.078Z,34.40
2019-05-19T09:22:42.545Z,35.77
2019-05-19T09:25:12.053Z,35.63
2019-05-19T09:27:41.506Z,35.33
2019-05-19T09:30:11.465Z,33.87
2019-05-19T09:32:40.991Z,32.77
2019-05-19T09:35:11.910Z,34.07
2019-05-19T09:37:41.356Z,32.63
2019-05-19T09:40:11.943Z,31.90
2019-05-19T09:42:42.899Z,33.30
2019-05-19T09:45:12.755Z,33.57
2019-05-19T09:47:43.858Z,34.20
2019-05-19T09:50:14.730Z,34.20
2019-05-19T09:52:44.359Z,33.53
2019-05-19T09:55:15.115Z,32.00
2019-05-19T09:57:44.547Z,33.47
2019-05-19T10:00:14.237Z,31.90
2019-05-19T10:02:43.681Z,32.90
2019-05-19T10:05:13.866Z,33.67
2019-05-19T10:07:43.449Z,34.60
2019-05-19T10:10:18.842Z,32.47
2019-05-19T10:12:50.913Z,31.50
2019-05-19T10:15:20.644Z,31.83
2019-05-19T10:17:50.122Z,33.40
2019-05-19T10:20:19.870Z,33.97
2019-05-19T10:22:49.304Z,32.13
2019-05-19T10:25:22.373Z,33.50
2019-05-19T10:27:50.024Z,31.07
2019-05-19T10:30:20.980Z,30.50
2019-05-19T10:32:50.445Z,29.23
2019-05-19T10:35:19.851Z,29.97
2019-05-19T10:37:50.262Z,27.40
2019-05-19T10:40:19.913Z,26.23
2019-05-19T10:42:50.221Z,27.00
2019-05-19T10:45:19.696Z,27.57
2019-05-19T10:47:49.130Z,29.93
2019-05-19T10:50:18.720Z,30.83
2019-05-19T10:52:48.230Z,29.50
2019-05-19T10:55:17.855Z,29.63
2019-05-19T10:57:48.849Z,26.23
2019-05-19T11:00:18.742Z,26.87
2019-05-19T11:02:48.206Z,25.60
2019-05-19T11:05:17.685Z,25.03
2019-05-19T11:07:48.728Z,26.07
2019-05-19T11:10:18.277Z,24.53
2019-05-19T11:12:47.732Z,24.73
2019-05-19T11:15:17.470Z,24.60
2019-05-19T11:17:46.925Z,23.83
2019-05-19T11:20:16.526Z,23.83
2019-05-19T11:22:46.115Z,24.23
2019-05-19T11:25:15.716Z,24.47
2019-05-19T11:27:45.172Z,25.23
2019-05-19T11:30:15.060Z,26.73
2019-05-19T11:32:44.710Z,27.23
2019-05-19T11:35:17.502Z,26.20
2019-05-19T11:37:47.091Z,24.57
2019-05-19T11:40:17.934Z,24.90
2019-05-19T11:42:47.427Z,24.33
2019-05-19T11:45:17.071Z,25.03
2019-05-19T11:47:46.653Z,26.37
2019-05-19T11:50:16.301Z,24.97
2019-05-19T11:52:45.732Z,24.00
2019-05-19T11:55:15.408Z,22.33
2019-05-19T11:57:45.219Z,21.97
2019-05-19T12:00:15.196Z,22.00
2019-05-19T12:02:44.654Z,22.45
2019-05-19T12:05:14.415Z,20.92
2019-05-19T12:07:43.852Z,23.27
2019-05-19T12:10:13.437Z,23.02
2019-05-19T12:12:42.951Z,23.20
2019-05-19T12:15:12.993Z,20.82
2019-05-19T12:17:42.452Z,20.63
2019-05-19T12:20:12.080Z,20.90
2019-05-19T12:22:41.535Z,20.33
2019-05-19T12:25:11.422Z,21.27
2019-05-19T12:27:41.132Z,20.17
2019-05-19T12:30:13.637Z,18.92
2019-05-19T12:32:43.103Z,19.73
2019-05-19T12:35:12.876Z,19.32
2019-05-19T12:37:42.385Z,19.50
2019-05-19T12:40:13.032Z,20.75
2019-05-19T12:42:42.462Z,18.70
2019-05-19T12:45:14.491Z,18.55
2019-05-19T12:47:44.003Z,19.10
2019-05-19T12:50:14.353Z,20.23
2019-05-19T12:52:43.811Z,18.17
2019-05-19T12:55:13.797Z,17.82
2019-05-19T12:57:43.331Z,18.07
2019-05-19T13:00:14.287Z,17.62
2019-05-19T13:02:43.746Z,17.05
2019-05-19T13:05:13.844Z,16.62
2019-05-19T13:07:43.327Z,17.40
2019-05-19T13:10:12.983Z,17.53
2019-05-19T13:12:42.450Z,17.27
2019-05-19T13:15:15.389Z,16.63
2019-05-19T13:17:43.350Z,16.73
2019-05-19T13:20:13.368Z,16.57
2019-05-19T13:22:42.811Z,16.40
2019-05-19T13:25:12.795Z,15.73
2019-05-19T13:27:42.254Z,14.97
2019-05-19T13:30:12.125Z,14.43
2019-05-19T13:32:41.583Z,15.50
2019-05-19T13:35:11.151Z,16.07
2019-05-19T13:37:42.153Z,15.77
2019-05-19T13:40:12.000Z,17.50
2019-05-19T13:42:41.457Z,18.60
2019-05-19T13:45:11.810Z,17.83
2019-05-19T13:47:42.779Z,18.30
2019-05-19T13:50:12.725Z,17.67
2019-05-19T13:52:42.348Z,17.57
2019-05-19T13:55:11.955Z,16.23
2019-05-19T13:57:41.444Z,16.33
2019-05-19T14:00:11.564Z,17.30
2019-05-19T14:02:42.716Z,18.13
2019-05-19T14:05:12.507Z,19.97
2019-05-19T14:07:41.963Z,21.07
2019-05-19T14:10:12.011Z,20.97
2019-05-19T14:12:42.081Z,23.67
2019-05-19T14:15:11.659Z,22.33
2019-05-19T14:17:41.085Z,24.10
2019-05-19T14:20:11.051Z,23.03
2019-05-19T14:22:40.560Z,23.70
2019-05-19T14:25:10.538Z,25.10
2019-05-19T14:27:39.999Z,22.40
2019-05-19T14:30:09.907Z,23.17
2019-05-19T14:32:39.361Z,25.03
2019-05-19T14:35:09.639Z,24.60
2019-05-19T14:37:39.194Z,25.13
2019-05-19T14:40:09.193Z,25.33
2019-05-19T14:42:43.458Z,26.73
2019-05-19T14:45:14.644Z,24.30
2019-05-19T14:47:44.116Z,22.63
2019-05-19T14:50:13.985Z,21.53
2019-05-19T14:52:43.428Z,20.20
2019-05-19T14:55:13.899Z,20.17
2019-05-19T14:57:45.280Z,19.80
2019-05-19T15:00:15.362Z,18.33
2019-05-19T15:02:45.032Z,18.87
2019-05-19T15:05:15.703Z,17.63
2019-05-19T15:07:45.329Z,18.37
2019-05-19T15:10:17.104Z,18.57
2019-05-19T15:12:46.675Z,20.33
2019-05-19T15:15:16.517Z,19.47
2019-05-19T15:17:46.160Z,20.20
2019-05-19T15:20:16.365Z,17.83
2019-05-19T15:22:45.840Z,18.60
2019-05-19T15:25:15.660Z,18.17
2019-05-19T15:27:59.366Z,16.27
2019-05-19T15:30:17.928Z,16.17
2019-05-19T15:32:47.382Z,15.80
2019-05-19T15:35:17.096Z,15.13
2019-05-19T15:37:46.524Z,13.10
2019-05-19T15:40:16.219Z,12.50
2019-05-19T15:42:46.465Z,13.20
2019-05-19T15:45:16.325Z,12.83
2019-05-19T15:47:45.772Z,12.83
2019-05-19T15:50:16.569Z,13.13
2019-05-19T15:52:46.132Z,15.30
2019-05-19T15:55:15.662Z,15.37
2019-05-19T15:57:45.070Z,17.63
2019-05-19T16:00:17.511Z,17.30
2019-05-19T16:02:46.927Z,18.37
2019-05-19T16:05:16.644Z,19.70
2019-05-19T16:07:46.059Z,20.40
2019-05-19T16:10:17.317Z,21.40
2019-05-19T16:12:46.765Z,22.37
2019-05-19T16:15:16.661Z,22.87
2019-05-19T16:17:46.102Z,24.27
2019-05-19T16:20:16.269Z,25.27
2019-05-19T16:22:45.885Z,25.03
2019-05-19T16:25:15.469Z,25.40
2019-05-19T16:27:44.972Z,25.37
2019-05-19T16:30:14.624Z,26.83
2019-05-19T16:32:44.084Z,27.47
2019-05-19T16:35:15.636Z,26.87
2019-05-19T16:37:45.106Z,27.03
2019-05-19T16:40:16.378Z,27.70
2019-05-19T16:42:45.822Z,28.67
2019-05-19T16:45:15.522Z,30.83
2019-05-19T16:47:45.004Z,30.90
2019-05-19T16:50:14.501Z,31.60
2019-05-19T16:52:43.955Z,33.03
2019-05-19T16:55:21.046Z,32.53
2019-05-19T16:57:50.516Z,32.70
2019-05-19T17:00:20.308Z,34.00
2019-05-19T17:02:49.829Z,33.90
2019-05-19T17:05:19.414Z,34.17
2019-05-19T17:07:48.934Z,36.10
2019-05-19T17:10:18.542Z,36.83
2019-05-19T17:12:47.988Z,37.27
2019-05-19T17:15:19.254Z,37.63
2019-05-19T17:17:48.768Z,36.47
2019-05-19T17:20:18.744Z,37.60
2019-05-19T17:22:48.292Z,37.40
2019-05-19T17:25:17.778Z,38.10
2019-05-19T17:27:47.229Z,37.17
2019-05-19T17:30:17.675Z,36.30
2019-05-19T17:32:47.105Z,37.40
2019-05-19T17:35:16.913Z,37.63
2019-05-19T17:37:46.420Z,37.37
2019-05-19T17:40:17.118Z,36.30
2019-05-19T17:42:46.629Z,35.33
2019-05-19T17:45:16.562Z,35.10
2019-05-19T17:47:46.080Z,35.60
2019-05-19T17:50:17.698Z,36.10
2019-05-19T17:52:47.155Z,35.20
2019-05-19T17:55:17.871Z,35.43
2019-05-19T17:57:47.663Z,36.30
2019-05-19T18:00:20.190Z,36.87
2019-05-19T18:02:49.622Z,35.87
2019-05-19T18:05:19.111Z,38.43
2019-05-19T18:07:48.554Z,42.90
2019-05-19T18:10:18.078Z,42.80
2019-05-19T18:12:47.516Z,39.90
2019-05-19T18:15:17.555Z,39.57
2019-05-19T18:17:46.999Z,39.07
2019-05-19T18:20:23.748Z,40.43
2019-05-19T18:22:47.766Z,39.53
2019-05-19T18:25:17.255Z,39.90
2019-05-19T18:27:46.751Z,37.10
2019-05-19T18:30:17.179Z,34.90
2019-05-19T18:32:46.627Z,37.27
2019-05-19T18:35:16.107Z,39.43
2019-05-19T18:37:45.551Z,35.13
2019-05-19T18:40:15.227Z,36.27
2019-05-19T18:42:44.667Z,35.37
2019-05-19T18:45:14.205Z,35.00
2019-05-19T18:47:44.208Z,31.63
2019-05-19T18:50:14.148Z,31.10
2019-05-19T18:52:43.863Z,29.90
2019-05-19T18:55:13.425Z,29.87
2019-05-19T18:57:42.920Z,27.27
2019-05-19T19:00:12.663Z,25.20
2019-05-19T19:02:42.210Z,26.20
2019-05-19T19:05:11.748Z,24.30
2019-05-19T19:07:48.490Z,23.33
2019-05-19T19:10:17.897Z,23.40
2019-05-19T19:12:47.910Z,24.67
2019-05-19T19:15:17.451Z,25.07
2019-05-19T19:17:47.038Z,25.43
2019-05-19T19:20:16.544Z,22.77
2019-05-19T19:22:45.989Z,22.83
2019-05-19T19:25:15.497Z,24.17
2019-05-19T19:27:45.013Z,20.23
2019-05-19T19:30:15.437Z,18.67
2019-05-19T19:32:45.348Z,18.53
2019-05-19T19:35:14.870Z,16.17
2019-05-19T19:37:44.321Z,8.87
2019-05-19T19:40:14.197Z,9.30
2019-05-19T19:42:44.369Z,8.70
2019-05-19T19:45:14.494Z,8.63
2019-05-19T19:47:45.474Z,8.77
2019-05-19T19:50:16.490Z,8.20
2019-05-19T19:52:45.998Z,8.30
2019-05-19T19:55:15.426Z,8.13
2019-05-19T19:57:44.845Z,8.17
2019-05-19T20:00:18.252Z,8.13
2019-05-19T20:02:45.824Z,8.60
2019-05-19T20:05:16.824Z,6.73
2019-05-19T20:07:46.365Z,5.90
2019-05-19T20:10:17.357Z,5.80
2019-05-19T20:12:46.772Z,5.90
2019-05-19T20:15:16.284Z,7.20
2019-05-19T20:17:45.690Z,6.43
2019-05-19T20:20:15.174Z,7.17
2019-05-19T20:22:44.604Z,7.30
2019-05-19T20:25:14.112Z,8.63
2019-05-19T20:27:43.546Z,7.00
2019-05-19T20:30:13.212Z,7.70
2019-05-19T20:32:42.613Z,9.03
2019-05-19T20:35:14.093Z,8.77
2019-05-19T20:37:43.643Z,9.10
2019-05-19T20:40:14.621Z,9.20
2019-05-19T20:42:44.019Z,8.90
2019-05-19T20:45:13.788Z,9.47
2019-05-19T20:47:43.187Z,11.67
2019-05-19T20:50:13.278Z,9.90
2019-05-19T20:52:42.661Z,10.97
2019-05-19T20:55:12.888Z,12.37
2019-05-19T20:57:42.313Z,13.30
2019-05-19T21:00:13.382Z,13.30
2019-05-19T21:02:42.877Z,12.23
2019-05-19T21:05:12.461Z,11.57
2019-05-19T21:07:41.884Z,11.73
2019-05-19T21:10:11.943Z,11.53
2019-05-19T21:12:41.437Z,14.10
2019-05-19T21:15:11.432Z,12.37
2019-05-19T21:17:40.945Z,10.67
2019-05-19T21:20:11.020Z,12.53
2019-05-19T21:22:40.497Z,12.13
2019-05-19T21:25:10.699Z,10.53
2019-05-19T21:27:40.373Z,10.47
2019-05-19T21:30:10.454Z,11.83
2019-05-19T21:32:39.961Z,10.33
2019-05-19T21:35:09.634Z,10.83
2019-05-19T21:37:39.159Z,11.07
2019-05-19T21:40:09.040Z,11.50
2019-05-19T21:42:38.499Z,10.67
2019-05-19T21:45:08.146Z,11.40
2019-05-19T21:47:37.557Z,11.27
2019-05-19T21:50:08.686Z,11.67
2019-05-19T21:52:38.129Z,11.57
2019-05-19T21:55:08.122Z,12.00
2019-05-19T21:57:37.528Z,10.77
2019-05-19T22:00:12.533Z,9.83
2019-05-19T22:02:42.078Z,12.13
2019-05-19T22:05:12.027Z,11.67
2019-05-19T22:07:43.128Z,10.80
2019-05-19T22:10:12.833Z,10.10
2019-05-19T22:12:42.428Z,9.47
2019-05-19T22:15:12.240Z,10.47
2019-05-19T22:17:41.832Z,9.77
2019-05-19T22:20:13.178Z,11.40
2019-05-19T22:22:42.614Z,9.90
2019-05-19T22:25:12.528Z,12.67
2019-05-19T22:27:42.139Z,10.57
2019-05-19T22:30:11.860Z,11.30
2019-05-19T22:32:41.295Z,12.33
2019-05-19T22:35:13.283Z,14.80
2019-05-19T22:37:42.720Z,15.13
2019-05-19T22:40:12.386Z,15.27
2019-05-19T22:42:41.835Z,15.17
2019-05-19T22:45:11.980Z,16.37
2019-05-19T22:47:41.426Z,17.63
2019-05-19T22:50:11.491Z,17.23
2019-05-19T22:52:42.593Z,17.20
2019-05-19T22:55:12.872Z,19.10
2019-05-19T22:57:42.317Z,19.00
2019-05-19T23:00:13.038Z,16.50
2019-05-19T23:02:42.604Z,18.10
2019-05-19T23:05:12.755Z,18.40
2019-05-19T23:07:42.182Z,17.57
2019-05-19T23:10:12.131Z,19.27
2019-05-19T23:12:41.592Z,16.10
2019-05-19T23:15:11.249Z,18.40
2019-05-19T23:17:40.820Z,18.40
2019-05-19T23:20:10.402Z,15.73
2019-05-19T23:22:41.654Z,19.00
2019-05-19T23:25:11.409Z,18.43
2019-05-19T23:27:40.869Z,18.00
2019-05-19T23:30:10.985Z,16.87
2019-05-19T23:32:41.932Z,18.23
2019-05-19T23:35:11.686Z,16.07
2019-05-19T23:37:41.130Z,14.60
2019-05-19T23:40:12.556Z,14.10
2019-05-19T23:42:42.231Z,20.50
2019-05-19T23:45:12.729Z,15.97
2019-05-19T23:47:42.159Z,14.93
2019-05-19T23:50:11.845Z,13.23
2019-05-19T23:52:41.361Z,15.47
2019-05-19T23:55:12.924Z,15.10
2019-05-19T23:57:42.345Z,15.20
